createdAt,value
2023-02-24T00:02:15.330Z,5.01
2023-02-24T00:05:24.003Z,4.97
2023-02-24T00:08:30.709Z,4.99
2023-02-24T00:11:36.893Z,5.00
2023-02-24T00:14:47.883Z,4.92
2023-02-24T00:17:53.732Z,4.98
2023-02-24T00:21:08.558Z,4.94
2023-02-24T00:24:16.028Z,4.89
2023-02-24T00:27:22.751Z,4.96
2023-02-24T00:30:29.963Z,5.02
2023-02-24T00:33:39.619Z,5.00
2023-02-24T00:36:48.071Z,5.08
2023-02-24T00:39:58.770Z,5.11
2023-02-24T00:43:04.613Z,5.08
2023-02-24T00:46:12.676Z,4.88
2023-02-24T00:49:24.697Z,4.94
2023-02-24T00:52:34.648Z,5.01
2023-02-24T00:55:40.553Z,5.09
2023-02-24T00:58:48.228Z,5.17
2023-02-24T01:01:56.024Z,5.10
2023-02-24T01:05:05.277Z,5.08
2023-02-24T01:08:17.713Z,4.98
2023-02-24T01:11:41.974Z,4.97
2023-02-24T01:14:50.642Z,4.92
2023-02-24T01:17:57.422Z,5.00
2023-02-24T01:21:05.174Z,4.99
2023-02-24T01:24:18.507Z,4.97
2023-02-24T01:27:24.748Z,4.88
2023-02-24T01:30:31.699Z,4.82
2023-02-24T01:33:39.530Z,4.86
2023-02-24T01:36:47.665Z,4.79
2023-02-24T01:39:56.180Z,4.89
2023-02-24T01:43:08.881Z,4.92
2023-02-24T01:46:15.150Z,4.93
2023-02-24T01:49:33.273Z,4.99
2023-02-24T01:52:42.209Z,4.99
2023-02-24T01:55:56.823Z,5.00
2023-02-24T01:59:14.395Z,4.96
2023-02-24T02:02:27.225Z,4.91
2023-02-24T02:05:33.456Z,4.93
2023-02-24T02:08:45.302Z,4.95
2023-02-24T02:11:53.841Z,5.00
2023-02-24T02:15:13.319Z,4.97
2023-02-24T02:18:41.530Z,4.95
2023-02-24T02:22:34.012Z,5.11
2023-02-24T02:26:11.785Z,5.11
2023-02-24T02:29:52.061Z,5.06
2023-02-24T02:34:05.646Z,5.01
2023-02-24T02:37:25.386Z,4.89
2023-02-24T02:40:45.992Z,4.80
2023-02-24T02:44:07.942Z,4.75
2023-02-24T02:47:26.376Z,4.68
2023-02-24T02:50:46.201Z,4.72
2023-02-24T02:54:05.266Z,4.65
2023-02-24T02:57:24.033Z,4.65
2023-02-24T03:00:51.594Z,4.64
2023-02-24T03:04:08.623Z,4.79
2023-02-24T03:07:23.250Z,4.72
2023-02-24T03:10:34.552Z,4.84
2023-02-24T03:13:49.845Z,4.79
2023-02-24T03:16:59.792Z,4.77
2023-02-24T03:20:26.432Z,4.84
2023-02-24T03:23:37.807Z,4.85
2023-02-24T03:26:52.840Z,4.74
2023-02-24T03:30:10.020Z,4.77
2023-02-24T03:33:29.965Z,4.74
2023-02-24T03:36:36.992Z,4.56
2023-02-24T03:39:51.518Z,4.25
2023-02-24T03:43:09.201Z,4.05
2023-02-24T03:46:18.844Z,3.97
2023-02-24T03:49:26.890Z,3.79
2023-02-24T03:52:49.344Z,3.75
2023-02-24T03:56:13.421Z,3.69
2023-02-24T03:59:44.032Z,3.66
2023-02-24T04:03:01.236Z,3.57
2023-02-24T04:06:23.843Z,3.66
2023-02-24T04:09:42.607Z,3.54
2023-02-24T04:13:11.564Z,3.56
2023-02-24T04:16:29.143Z,3.51
2023-02-24T04:19:43.075Z,3.46
2023-02-24T04:22:58.206Z,3.43
2023-02-24T04:26:06.646Z,3.45
2023-02-24T04:29:23.246Z,3.48
2023-02-24T04:32:34.533Z,3.48
2023-02-24T04:35:41.549Z,3.42
2023-02-24T04:38:48.944Z,3.40
2023-02-24T04:42:08.317Z,3.38
2023-02-24T04:45:30.330Z,3.29
2023-02-24T04:48:36.308Z,3.29
2023-02-24T04:51:45.121Z,3.30
2023-02-24T04:54:51.058Z,3.28
2023-02-24T04:57:58.259Z,3.23
2023-02-24T05:01:13.205Z,3.17
2023-02-24T05:04:20.938Z,3.25
2023-02-24T05:07:29.281Z,3.21
2023-02-24T05:10:42.480Z,3.22
2023-02-24T05:13:49.028Z,3.18
2023-02-24T05:17:00.625Z,3.18
2023-02-24T05:20:20.692Z,3.17
2023-02-24T05:23:29.331Z,3.16
2023-02-24T05:26:37.652Z,3.15
2023-02-24T05:29:44.618Z,3.24
2023-02-24T05:32:54.636Z,3.20
2023-02-24T05:36:08.776Z,3.28
2023-02-24T05:39:19.374Z,3.32
2023-02-24T05:42:26.081Z,3.32
2023-02-24T05:45:31.929Z,3.39
2023-02-24T05:48:41.418Z,3.42
2023-02-24T05:51:57.866Z,3.41
2023-02-24T05:55:06.896Z,3.43
2023-02-24T05:58:12.843Z,3.44
2023-02-24T06:01:31.346Z,3.44
2023-02-24T06:04:54.290Z,3.43
2023-02-24T06:08:11.868Z,3.42
2023-02-24T06:11:19.503Z,3.39
2023-02-24T06:14:26.319Z,3.38
2023-02-24T06:17:32.964Z,3.43
2023-02-24T06:20:42.300Z,3.47
2023-02-24T06:23:48.526Z,3.45
2023-02-24T06:27:08.341Z,3.64
2023-02-24T06:30:18.733Z,3.76
2023-02-24T06:33:27.178Z,3.80
2023-02-24T06:36:35.788Z,3.88
2023-02-24T06:39:43.229Z,3.91
2023-02-24T06:42:54.204Z,3.74
2023-02-24T06:46:01.612Z,3.77
2023-02-24T06:49:12.884Z,3.80
2023-02-24T06:52:22.197Z,3.83
2023-02-24T06:55:30.801Z,3.87
2023-02-24T06:58:39.335Z,3.99
2023-02-24T07:01:49.384Z,4.01
2023-02-24T07:04:58.780Z,4.08
2023-02-24T07:08:08.725Z,4.10
2023-02-24T07:11:17.845Z,4.12
2023-02-24T07:14:27.327Z,4.03
2023-02-24T07:17:34.095Z,4.05
2023-02-24T07:20:52.355Z,4.03
2023-02-24T07:24:05.043Z,4.09
2023-02-24T07:27:25.813Z,4.07
2023-02-24T07:30:33.591Z,3.98
2023-02-24T07:33:40.455Z,3.98
2023-02-24T07:36:52.039Z,3.99
2023-02-24T07:40:00.551Z,4.11
2023-02-24T07:43:07.747Z,4.05
2023-02-24T07:46:19.445Z,4.11
2023-02-24T07:49:30.407Z,4.11
2023-02-24T07:52:37.418Z,4.07
2023-02-24T07:55:53.970Z,4.00
2023-02-24T07:59:08.145Z,4.03
2023-02-24T08:02:14.854Z,3.96
2023-02-24T08:05:21.811Z,4.10
2023-02-24T08:08:33.604Z,4.14
2023-02-24T08:11:52.598Z,4.29
2023-02-24T08:15:00.410Z,4.44
2023-02-24T08:18:06.930Z,4.37
2023-02-24T08:21:14.401Z,4.43
2023-02-24T08:24:25.317Z,4.50
2023-02-24T08:27:39.183Z,4.35
2023-02-24T08:30:47.963Z,4.38
2023-02-24T08:33:56.538Z,4.22
2023-02-24T08:37:02.340Z,4.40
2023-02-24T08:40:34.302Z,4.58
2023-02-24T08:43:46.608Z,4.54
2023-02-24T08:46:53.870Z,4.51
2023-02-24T08:50:05.146Z,4.65
2023-02-24T08:53:19.370Z,4.68
2023-02-24T08:56:29.230Z,4.70
2023-02-24T08:59:50.217Z,4.84
2023-02-24T09:02:56.420Z,4.86
2023-02-24T09:06:08.968Z,4.87
2023-02-24T09:09:22.824Z,4.86
2023-02-24T09:12:34.785Z,4.84
2023-02-24T09:15:44.742Z,4.73
2023-02-24T09:19:10.905Z,4.75
2023-02-24T09:22:32.216Z,4.67
2023-02-24T09:25:49.840Z,4.77
2023-02-24T09:28:58.565Z,4.74
2023-02-24T09:32:13.816Z,4.82
2023-02-24T09:35:26.229Z,4.82
2023-02-24T09:38:46.342Z,4.93
2023-02-24T09:42:19.535Z,4.88
2023-02-24T09:45:33.753Z,5.03
2023-02-24T09:49:12.402Z,4.97
2023-02-24T09:52:38.279Z,5.37
2023-02-24T09:56:08.916Z,5.74
2023-02-24T09:59:33.415Z,5.83
2023-02-24T10:03:00.442Z,6.16
2023-02-24T10:06:23.466Z,6.33
2023-02-24T10:09:38.852Z,6.58
2023-02-24T10:12:45.933Z,6.47
2023-02-24T10:16:12.284Z,6.57
2023-02-24T10:19:34.379Z,6.45
2023-02-24T10:22:56.056Z,7.11
2023-02-24T10:26:08.981Z,7.19
2023-02-24T10:29:36.242Z,7.14
2023-02-24T10:32:59.111Z,6.79
2023-02-24T10:36:13.262Z,6.46
2023-02-24T10:39:26.385Z,6.67
2023-02-24T10:42:37.801Z,6.59
2023-02-24T10:45:46.422Z,7.39
2023-02-24T10:49:03.480Z,8.52
2023-02-24T10:52:11.373Z,9.56
2023-02-24T10:55:52.775Z,9.51
2023-02-24T10:59:36.732Z,9.72
2023-02-24T11:03:07.414Z,8.92
2023-02-24T11:06:42.537Z,8.39
2023-02-24T11:09:52.863Z,7.91
2023-02-24T11:13:16.971Z,7.36
2023-02-24T11:16:36.286Z,7.16
2023-02-24T11:19:48.351Z,7.05
2023-02-24T11:22:58.025Z,7.07
2023-02-24T11:26:12.961Z,7.16
2023-02-24T11:29:54.853Z,7.26
2023-02-24T11:33:26.459Z,7.24
2023-02-24T11:36:49.729Z,7.34
2023-02-24T11:40:04.089Z,7.53
2023-02-24T11:43:21.599Z,7.40
2023-02-24T11:46:45.274Z,7.52
2023-02-24T11:50:06.068Z,7.30
2023-02-24T11:53:41.362Z,7.37
2023-02-24T11:56:56.206Z,7.14
2023-02-24T12:00:20.368Z,7.15
2023-02-24T12:03:43.104Z,6.98
2023-02-24T12:07:02.737Z,6.80
2023-02-24T12:10:22.779Z,6.77
2023-02-24T12:13:41.803Z,6.68
2023-02-24T12:16:59.615Z,6.69
2023-02-24T12:20:23.460Z,6.65
2023-02-24T12:23:37.696Z,6.50
2023-02-24T12:27:01.516Z,6.50
2023-02-24T12:30:57.877Z,6.43
2023-02-24T12:34:15.774Z,6.12
2023-02-24T12:37:48.582Z,5.99
2023-02-24T12:41:15.470Z,5.95
2023-02-24T12:44:39.978Z,5.90
2023-02-24T12:48:07.603Z,5.69
2023-02-24T12:51:29.955Z,5.55
2023-02-24T12:54:50.469Z,5.61
2023-02-24T12:58:14.158Z,5.64
2023-02-24T13:01:33.448Z,5.74
2023-02-24T13:04:56.413Z,5.81
2023-02-24T13:08:27.196Z,5.82
2023-02-24T13:11:52.948Z,5.87
2023-02-24T13:14:59.848Z,5.94
2023-02-24T13:18:06.696Z,5.90
2023-02-24T13:21:25.254Z,5.97
2023-02-24T13:24:32.784Z,5.97
2023-02-24T13:27:45.976Z,5.89
2023-02-24T13:31:04.171Z,5.97
2023-02-24T13:34:17.981Z,6.01
2023-02-24T13:37:36.411Z,5.88
2023-02-24T13:40:42.365Z,5.92
2023-02-24T13:44:02.571Z,5.87
2023-02-24T13:47:57.451Z,5.83
2023-02-24T13:51:53.529Z,5.93
2023-02-24T13:55:33.884Z,6.03
2023-02-24T13:59:12.792Z,5.97
2023-02-24T14:02:23.379Z,6.04
2023-02-24T14:05:37.414Z,6.02
2023-02-24T14:08:54.353Z,6.10
2023-02-24T14:12:07.893Z,6.05
2023-02-24T14:15:31.558Z,6.13
2023-02-24T14:18:39.620Z,6.23
2023-02-24T14:21:55.272Z,6.21
2023-02-24T14:25:05.730Z,6.14
2023-02-24T14:28:27.449Z,6.09
2023-02-24T14:31:37.130Z,6.14
2023-02-24T14:34:43.659Z,6.19
2023-02-24T14:37:50.621Z,6.25
2023-02-24T14:40:56.508Z,6.10
2023-02-24T14:44:19.526Z,6.10
2023-02-24T14:47:33.613Z,6.16
2023-02-24T14:50:41.001Z,6.15
2023-02-24T14:53:54.844Z,6.25
2023-02-24T14:57:04.525Z,6.09
2023-02-24T15:00:24.381Z,6.24
2023-02-24T15:03:40.790Z,6.17
2023-02-24T15:06:47.803Z,6.13
2023-02-24T15:09:56.870Z,6.09
2023-02-24T15:13:13.854Z,6.20
2023-02-24T15:16:28.955Z,6.12
2023-02-24T15:19:45.997Z,6.12
2023-02-24T15:22:54.043Z,6.04
2023-02-24T15:26:00.132Z,6.03
2023-02-24T15:29:18.338Z,6.05
2023-02-24T15:32:30.789Z,6.07
2023-02-24T15:35:54.063Z,6.12
2023-02-24T15:39:05.874Z,5.97
2023-02-24T15:42:28.673Z,6.08
2023-02-24T15:45:38.794Z,6.10
2023-02-24T15:48:47.883Z,6.04
2023-02-24T15:52:04.533Z,6.13
2023-02-24T15:55:17.982Z,6.10
2023-02-24T15:58:26.484Z,6.04
2023-02-24T16:01:34.130Z,5.89
2023-02-24T16:04:48.937Z,5.86
2023-02-24T16:07:58.565Z,5.84
2023-02-24T16:11:04.550Z,5.89
2023-02-24T16:14:19.862Z,5.81
2023-02-24T16:17:36.040Z,5.73
2023-02-24T16:20:42.822Z,5.67
2023-02-24T16:23:51.513Z,5.67
2023-02-24T16:26:58.365Z,5.71
2023-02-24T16:30:04.794Z,5.74
2023-02-24T16:33:17.676Z,5.60
2023-02-24T16:36:25.622Z,5.71
2023-02-24T16:39:35.168Z,5.68
2023-02-24T16:42:41.068Z,5.68
2023-02-24T16:45:49.191Z,5.64
2023-02-24T16:48:56.838Z,5.56
2023-02-24T16:52:03.696Z,5.48
2023-02-24T16:55:16.031Z,5.31
2023-02-24T16:58:23.632Z,5.19
2023-02-24T17:01:29.781Z,5.23
2023-02-24T17:04:36.599Z,5.36
2023-02-24T17:07:42.801Z,5.63
2023-02-24T17:10:54.473Z,5.61
2023-02-24T17:14:00.426Z,5.38
2023-02-24T17:17:07.532Z,5.32
2023-02-24T17:20:17.239Z,4.98
2023-02-24T17:23:24.776Z,5.09
2023-02-24T17:26:33.674Z,5.07
2023-02-24T17:29:40.541Z,5.16
2023-02-24T17:32:46.761Z,5.19
2023-02-24T17:35:53.589Z,5.23
2023-02-24T17:38:59.606Z,5.28
2023-02-24T17:42:15.686Z,5.24
2023-02-24T17:45:22.190Z,5.20
2023-02-24T17:48:28.988Z,5.18
2023-02-24T17:51:38.738Z,5.17
2023-02-24T17:54:45.598Z,5.05
2023-02-24T17:57:57.029Z,4.99
2023-02-24T18:01:24.685Z,4.93
2023-02-24T18:04:30.613Z,5.06
2023-02-24T18:07:37.734Z,5.14
2023-02-24T18:10:51.894Z,5.18
2023-02-24T18:14:05.114Z,5.21
2023-02-24T18:17:11.106Z,5.33
2023-02-24T18:20:37.935Z,5.40
2023-02-24T18:23:48.884Z,5.55
2023-02-24T18:26:55.769Z,5.50
2023-02-24T18:30:10.354Z,5.48
2023-02-24T18:33:28.338Z,5.34
2023-02-24T18:36:34.331Z,5.37
2023-02-24T18:39:41.264Z,5.39
2023-02-24T18:42:47.226Z,5.19
2023-02-24T18:46:00.178Z,5.08
2023-02-24T18:49:09.071Z,5.15
2023-02-24T18:52:15.829Z,5.08
2023-02-24T18:55:22.612Z,5.00
2023-02-24T18:58:29.368Z,5.02
2023-02-24T19:01:41.854Z,4.99
2023-02-24T19:04:53.524Z,4.98
2023-02-24T19:08:00.052Z,4.93
2023-02-24T19:11:12.606Z,4.84
2023-02-24T19:14:20.180Z,4.81
2023-02-24T19:17:29.678Z,4.80
2023-02-24T19:20:35.999Z,4.86
2023-02-24T19:23:42.831Z,4.82
2023-02-24T19:26:56.626Z,4.83
2023-02-24T19:30:08.796Z,4.88
2023-02-24T19:33:17.768Z,4.96
2023-02-24T19:36:26.650Z,4.85
2023-02-24T19:39:33.173Z,4.93
2023-02-24T19:42:40.758Z,4.95
2023-02-24T19:45:47.401Z,4.92
2023-02-24T19:48:59.193Z,5.02
2023-02-24T19:52:05.281Z,5.10
2023-02-24T19:55:14.814Z,5.08
2023-02-24T19:58:20.989Z,4.99
2023-02-24T20:01:30.565Z,5.06
2023-02-24T20:04:39.214Z,4.98
2023-02-24T20:07:46.397Z,4.94
2023-02-24T20:11:02.798Z,4.98
2023-02-24T20:14:11.518Z,5.01
2023-02-24T20:17:17.823Z,4.96
2023-02-24T20:20:27.496Z,4.90
2023-02-24T20:23:34.809Z,4.86
2023-02-24T20:26:46.515Z,4.76
2023-02-24T20:29:53.746Z,4.70
2023-02-24T20:33:00.713Z,4.62
2023-02-24T20:36:21.188Z,4.68
2023-02-24T20:39:28.133Z,4.66
2023-02-24T20:42:34.148Z,4.63
2023-02-24T20:45:49.684Z,4.64
2023-02-24T20:49:00.682Z,4.69
2023-02-24T20:52:13.073Z,4.71
2023-02-24T20:55:19.303Z,4.73
2023-02-24T20:58:30.697Z,4.62
2023-02-24T21:01:45.081Z,4.67
2023-02-24T21:04:53.278Z,4.65
2023-02-24T21:08:08.457Z,4.59
2023-02-24T21:11:18.534Z,4.53
2023-02-24T21:14:25.047Z,4.53
2023-02-24T21:17:34.407Z,4.42
2023-02-24T21:20:41.207Z,4.35
2023-02-24T21:23:51.644Z,4.31
2023-02-24T21:26:57.540Z,4.33
2023-02-24T21:30:04.200Z,4.31
2023-02-24T21:33:14.420Z,4.35
2023-02-24T21:36:24.551Z,4.29
2023-02-24T21:39:33.304Z,4.29
2023-02-24T21:42:42.078Z,4.32
2023-02-24T21:45:50.715Z,4.26
2023-02-24T21:48:58.166Z,4.40
2023-02-24T21:52:11.667Z,4.40
2023-02-24T21:55:23.641Z,4.48
2023-02-24T21:58:29.458Z,4.52
2023-02-24T22:01:39.549Z,4.48
2023-02-24T22:04:47.023Z,4.32
2023-02-24T22:07:58.435Z,4.28
2023-02-24T22:11:07.088Z,4.27
2023-02-24T22:14:17.448Z,4.27
2023-02-24T22:17:23.382Z,4.21
2023-02-24T22:20:32.368Z,4.24
2023-02-24T22:23:39.400Z,4.24
2023-02-24T22:26:49.956Z,4.41
2023-02-24T22:29:56.267Z,4.34
2023-02-24T22:33:03.117Z,4.30
2023-02-24T22:36:12.592Z,4.30
2023-02-24T22:39:19.346Z,4.50
2023-02-24T22:42:28.818Z,4.42
2023-02-24T22:45:35.614Z,4.52
2023-02-24T22:48:44.907Z,4.46
2023-02-24T22:51:53.453Z,4.31
2023-02-24T22:54:59.416Z,4.22
2023-02-24T22:58:10.564Z,4.17
2023-02-24T23:01:20.578Z,4.22
2023-02-24T23:04:29.378Z,4.29
2023-02-24T23:07:35.352Z,4.38
2023-02-24T23:10:42.119Z,4.48
2023-02-24T23:13:54.813Z,4.46
2023-02-24T23:17:08.672Z,4.46
2023-02-24T23:20:23.696Z,4.61
2023-02-24T23:23:34.020Z,4.73
2023-02-24T23:26:47.507Z,4.74
2023-02-24T23:29:56.823Z,4.75
2023-02-24T23:33:06.340Z,4.79
2023-02-24T23:36:18.888Z,4.79
2023-02-24T23:39:25.130Z,4.67
2023-02-24T23:42:32.211Z,4.62
2023-02-24T23:45:44.584Z,4.51
2023-02-24T23:48:55.438Z,4.45
2023-02-24T23:52:02.025Z,4.37
2023-02-24T23:55:09.765Z,4.40
2023-02-24T23:58:16.865Z,4.42
